Time;durP1;ratioP1;P1;durP2;ratioP2;P2;SDS_P1;SDS_P2;PMS_P1;PMS_P2;Temp;Humidity;BMP_temperature;BMP_pressure;BME280_temperature;BME280_humidity;BME280_pressure;Samples;Min_cycle;Max_cycle;Signal;HPM_P1;HPM_P2
2022/03/04 00:03:44;;;;;;;9.60;6.57;;;;;;;-1.13;73.84;99433.84;8362797;28;20171;-74
2022/03/04 00:07:46;;;;;;;12.83;6.97;;;;;;;-1.11;74.09;99436.44;8362457;28;20132;-73
2022/03/04 00:11:48;;;;;;;8.87;6.23;;;;;;;-1.13;74.70;99446.56;8361836;28;20135;-75
2022/03/04 00:15:50;;;;;;;10.90;6.95;;;;;;;-1.17;74.14;99446.38;8370853;28;20176;-75
2022/03/04 00:19:52;;;;;;;;;;;;;;;-1.19;74.89;99458.19;8363176;28;20062;-75
2022/03/04 00:23:54;;;;;;;10.30;5.90;;;;;;;-1.23;75.26;99460.59;8376722;28;19935;-74
2022/03/04 00:27:55;;;;;;;11.20;6.43;;;;;;;-1.29;74.36;99454.34;8364056;28;20088;-74
2022/03/04 00:31:57;;;;;;;13.17;6.70;;;;;;;-1.35;74.59;99460.06;8359312;28;20147;-75
2022/03/04 00:35:58;;;;;;;12.87;6.73;;;;;;;-1.45;74.51;99464.66;8653069;22;20089;-75
2022/03/04 00:40:00;;;;;;;11.33;6.57;;;;;;;-1.49;74.55;99467.91;8312228;28;20438;-74
2022/03/04 00:44:02;;;;;;;15.23;8.60;;;;;;;-1.49;74.60;99468.75;8321847;28;20370;-74
2022/03/04 00:48:04;;;;;;;16.67;8.47;;;;;;;-1.55;75.12;99474.47;8300665;28;20137;-75
2022/03/04 00:52:05;;;;;;;14.35;6.85;;;;;;;-1.56;75.27;99471.84;8310040;28;20377;-75
2022/03/04 00:56:08;;;;;;;13.93;8.53;;;;;;;-1.57;75.58;99465.91;8313824;28;20067;-76
2022/03/04 01:00:10;;;;;;;16.47;7.80;;;;;;;-1.62;75.00;99466.47;8318289;28;20051;-74
2022/03/04 01:04:12;;;;;;;13.88;8.32;;;;;;;-1.65;74.60;99459.56;8314588;28;20151;-74
2022/03/04 01:08:13;;;;;;;12.23;7.80;;;;;;;-1.68;74.90;99461.13;8327912;28;20131;-77
2022/03/04 01:12:15;;;;;;;13.13;7.27;;;;;;;-1.73;75.02;99463.47;8316520;28;20053;-74
2022/03/04 01:16:16;;;;;;;11.60;6.97;;;;;;;-1.74;76.43;99463.41;8303351;28;20053;-74
2022/03/04 01:20:18;;;;;;;13.00;7.13;;;;;;;-1.77;75.99;99453.09;8314380;28;20355;-78
2022/03/04 01:24:19;;;;;;;14.07;6.53;;;;;;;-1.82;75.44;99465.56;8321283;28;20058;-75
2022/03/04 01:28:21;;;;;;;10.17;6.70;;;;;;;-1.88;76.03;99447.50;8318590;28;20054;-75
2022/03/04 01:32:23;;;;;;;9.30;6.30;;;;;;;-1.96;76.83;99453.91;8318765;28;20697;-76
2022/03/04 01:36:24;;;;;;;9.63;5.80;;;;;;;-1.98;76.79;99453.81;8331122;28;20372;-75
2022/03/04 01:40:26;;;;;;;9.27;5.63;;;;;;;-1.98;77.21;99456.38;8321849;28;20042;-77
2022/03/04 01:44:28;;;;;;;10.43;6.50;;;;;;;-1.98;76.56;99451.28;8319644;28;20153;-76
2022/03/04 01:48:29;;;;;;;11.77;6.15;;;;;;;-2.01;76.08;99458.78;8328314;28;20053;-78
2022/03/04 01:52:31;;;;;;;9.35;6.35;;;;;;;-2.08;75.76;99444.03;8318562;28;20057;-76
2022/03/04 01:56:33;;;;;;;10.03;6.60;;;;;;;-2.11;76.66;99455.75;8319691;28;20057;-76
2022/03/04 02:00:34;;;;;;;9.73;6.20;;;;;;;-2.14;76.61;99448.84;8314291;28;20067;-76
2022/03/04 02:04:36;;;;;;;11.43;6.10;;;;;;;-2.16;76.40;99451.28;8321379;28;20057;-76
2022/03/04 02:08:38;;;;;;;10.60;7.07;;;;;;;-2.27;76.80;99449.94;8319772;28;20456;-75
2022/03/04 02:12:40;;;;;;;10.13;6.27;;;;;;;-2.30;76.56;99448.94;8329989;28;20164;-76
2022/03/04 02:16:50;;;;;;;8.95;6.25;;;;;;;-2.29;77.36;99450.69;8316450;28;20060;-76
2022/03/04 02:20:53;;;;;;;6.97;5.57;;;;;;;-2.31;77.41;99457.38;8321518;28;20084;-76
2022/03/04 02:24:55;;;;;;;9.73;5.77;;;;;;;-2.35;77.16;99450.38;8330724;28;20088;-76
2022/03/04 02:28:56;;;;;;;8.18;5.10;;;;;;;-2.44;77.65;99445.72;8318084;28;20705;-76
2022/03/04 02:32:58;;;;;;;9.83;5.60;;;;;;;-2.51;77.48;99452.22;8309663;28;20088;-76
2022/03/04 02:37:00;;;;;;;9.27;6.27;;;;;;;-2.47;78.12;99448.13;8320457;28;20077;-76
2022/03/04 02:41:01;;;;;;;10.17;5.73;;;;;;;-2.52;77.71;99452.97;8319440;28;20670;-76
2022/03/04 02:45:03;;;;;;;8.97;5.73;;;;;;;-2.57;77.38;99456.97;8310281;28;20084;-75
2022/03/04 02:49:06;;;;;;;12.52;6.35;;;;;;;-2.60;77.15;99461.91;8318539;28;20068;-76
2022/03/04 02:53:08;;;;;;;8.77;6.00;;;;;;;-2.68;77.22;99447.09;8324084;28;20133;-78
2022/03/04 02:57:09;;;;;;;8.70;5.53;;;;;;;-2.68;78.18;99450.53;8318415;28;20053;-76
2022/03/04 03:01:11;;;;;;;10.13;5.57;;;;;;;-2.70;77.80;99451.22;8300286;28;20072;-75
2022/03/04 03:05:13;;;;;;;9.50;5.63;;;;;;;-2.76;77.63;99446.72;8324811;28;20053;-75
2022/03/04 03:09:15;;;;;;;9.63;5.87;;;;;;;-2.77;77.48;99452.59;8323425;28;20477;-76
2022/03/04 03:13:16;;;;;;;11.93;6.00;;;;;;;-2.86;76.97;99447.06;8324174;28;20081;-76
2022/03/04 03:17:18;;;;;;;10.80;5.77;;;;;;;-2.88;77.36;99444.44;8321613;28;20096;-76
2022/03/04 03:21:19;;;;;;;10.57;6.03;;;;;;;-2.88;78.04;99451.19;8334980;28;20056;-76
2022/03/04 03:25:21;;;;;;;11.23;6.03;;;;;;;-2.88;77.99;99446.09;8321741;28;20096;-76
2022/03/04 03:29:22;;;;;;;10.17;6.17;;;;;;;-2.91;77.92;99446.81;8334608;28;20049;-76
2022/03/04 03:33:24;;;;;;;6.13;4.10;;;;;;;-2.93;78.23;99443.34;8319276;28;20461;-76
2022/03/04 03:37:25;;;;;;;10.63;6.07;;;;;;;-2.96;78.12;99455.03;8323272;28;20088;-76
2022/03/04 03:41:27;;;;;;;9.70;6.03;;;;;;;-2.96;78.12;99448.28;8322419;28;20045;-75
2022/03/04 03:45:29;;;;;;;10.10;6.50;;;;;;;-2.96;77.97;99448.28;8314085;28;20081;-76
2022/03/04 03:49:30;;;;;;;9.48;5.82;;;;;;;-2.97;77.89;99450.75;8326033;28;20555;-76
2022/03/04 03:53:32;;;;;;;7.57;5.50;;;;;;;-3.01;78.36;99452.25;8317467;28;20049;-76
2022/03/04 03:57:33;;;;;;;12.57;6.33;;;;;;;-3.08;78.66;99445.13;8319352;28;21287;-75
2022/03/04 04:01:35;;;;;;;11.70;6.20;;;;;;;-3.09;78.16;99448.44;8333383;28;20080;-75
2022/03/04 04:05:37;;;;;;;9.57;6.00;;;;;;;-3.12;78.82;99449.19;8321936;28;20052;-75
2022/03/04 04:09:39;;;;;;;6.93;5.40;;;;;;;-3.16;78.72;99448.94;8322565;28;20128;-75
2022/03/04 04:13:40;;;;;;;8.45;6.10;;;;;;;-3.20;79.02;99445.41;8316827;28;20057;-75
2022/03/04 04:17:42;;;;;;;9.20;6.00;;;;;;;-3.24;79.73;99445.13;8309116;28;20469;-76
2022/03/04 04:21:44;;;;;;;6.70;4.53;;;;;;;-3.22;80.43;99449.53;8337983;28;20073;-75
2022/03/04 04:25:45;;;;;;;10.13;6.20;;;;;;;-3.25;80.62;99445.94;8320249;28;20132;-75
2022/03/04 04:29:47;;;;;;;10.40;5.80;;;;;;;-3.27;80.43;99452.59;8318798;28;20305;-75
2022/03/04 04:33:48;;;;;;;10.93;6.20;;;;;;;-3.35;79.94;99448.03;8311509;28;20067;-75
2022/03/04 04:37:50;;;;;;;8.53;5.57;;;;;;;-3.36;79.80;99446.28;8319098;28;20465;-75
2022/03/04 04:41:51;;;;;;;8.17;5.83;;;;;;;-3.38;79.47;99450.41;8308483;28;20374;-75
2022/03/04 04:45:53;;;;;;;8.17;6.23;;;;;;;-3.41;79.87;99457.88;8311822;28;20096;-75
2022/03/04 04:49:55;;;;;;;6.95;4.65;;;;;;;-3.42;79.35;99447.59;8331671;28;20049;-75
2022/03/04 04:53:56;;;;;;;6.27;4.60;;;;;;;-3.44;79.03;99456.81;8312904;28;20054;-74
2022/03/04 04:57:58;;;;;;;10.53;5.60;;;;;;;-3.47;78.91;99452.47;8312656;28;20088;-76
2022/03/04 05:02:00;;;;;;;8.93;6.25;;;;;;;-3.46;79.75;99455.88;8301499;28;20089;-75
2022/03/04 05:06:02;;;;;;;10.83;4.53;;;;;;;-3.48;80.00;99454.91;8312083;28;20088;-75
2022/03/04 05:10:05;;;;;;;6.07;4.75;;;;;;;-3.50;79.41;99456.50;8315312;28;20551;-75
2022/03/04 05:14:07;;;;;;;11.30;6.77;;;;;;;-3.53;79.27;99458.91;8318850;28;20052;-75
2022/03/04 05:18:08;;;;;;;10.93;5.80;;;;;;;-3.59;79.77;99476.31;8305085;28;20497;-75
2022/03/04 05:22:09;;;;;;;10.30;5.97;;;;;;;-3.62;79.71;99471.97;8314610;28;20057;-75
2022/03/04 05:26:11;;;;;;;8.83;6.13;;;;;;;-3.61;79.33;99480.44;8330321;28;20060;-75
2022/03/04 05:30:13;;;;;;;7.93;5.20;;;;;;;-3.60;79.71;99494.88;8309509;28;20077;-75
2022/03/04 05:34:15;;;;;;;13.35;6.00;;;;;;;-3.65;79.74;99497.16;8327772;28;20041;-75
2022/03/04 05:38:17;;;;;;;10.43;5.83;;;;;;;-3.65;79.76;99495.50;8314430;28;20046;-75
2022/03/04 05:42:19;;;;;;;11.57;5.55;;;;;;;-3.66;79.97;99506.44;8331004;28;20760;-75
2022/03/04 05:46:21;;;;;;;7.68;5.38;;;;;;;-3.67;79.77;99504.69;8313139;28;20068;-75
2022/03/04 05:50:22;;;;;;;6.90;4.30;;;;;;;-3.69;79.54;99516.44;8313961;28;20073;-75
2022/03/04 05:54:27;;;;;;;9.30;5.90;;;;;;;-3.76;80.03;99508.44;8321674;28;20294;-75
2022/03/04 05:58:28;;;;;;;11.30;6.07;;;;;;;-3.79;79.22;99519.25;8324084;28;20409;-75
2022/03/04 06:02:31;;;;;;;10.10;5.85;;;;;;;-3.82;78.79;99515.69;8315693;28;20069;-75
2022/03/04 06:06:33;;;;;;;10.50;6.18;;;;;;;-3.85;78.79;99513.88;8313376;28;20987;-74
2022/03/04 06:10:34;;;;;;;12.50;6.57;;;;;;;-3.86;79.39;99521.41;8321812;28;20116;-74
2022/03/04 06:14:36;;;;;;;13.27;6.27;;;;;;;-3.86;79.29;99522.25;8322375;28;20077;-74
2022/03/04 06:18:37;;;;;;;12.67;6.77;;;;;;;-3.86;79.28;99537.47;8317917;28;20045;-75
2022/03/04 06:22:39;;;;;;;13.77;7.70;;;;;;;-3.87;79.16;99539.94;8333855;28;20052;-75
2022/03/04 06:26:40;;;;;;;14.03;6.80;;;;;;;-3.87;80.72;99543.34;8336468;28;20050;-75
2022/03/04 06:30:42;;;;;;;10.47;6.83;;;;;;;-3.85;80.98;99551.03;8317010;28;20096;-75
2022/03/04 06:34:43;;;;;;;9.57;6.20;;;;;;;-3.74;81.58;99555.03;8311446;28;20643;-73
2022/03/04 06:38:45;;;;;;;10.50;5.63;;;;;;;-3.65;82.07;99555.53;8310191;28;20050;-75
2022/03/04 06:42:47;;;;;;;11.00;6.80;;;;;;;-3.52;82.22;99557.06;8329024;28;20464;-74
2022/03/04 06:46:48;;;;;;;8.00;5.67;;;;;;;-3.46;81.50;99555.72;8313432;28;20057;-75
2022/03/04 06:50:51;;;;;;;10.37;5.70;;;;;;;-3.39;81.62;99557.81;8326943;28;20136;-74
2022/03/04 06:54:52;;;;;;;13.32;5.78;;;;;;;-3.27;81.59;99565.19;8309177;28;20049;-75
2022/03/04 06:58:53;;;;;;;14.13;6.07;;;;;;;-3.10;81.40;99566.94;8310547;28;20084;-75
2022/03/04 07:02:55;;;;;;;8.60;6.10;;;;;;;-2.95;81.44;99568.53;8299833;28;20153;-75
2022/03/04 07:06:57;;;;;;;8.17;6.03;;;;;;;-2.80;81.77;99574.41;8310150;28;20081;-75
2022/03/04 07:10:58;;;;;;;11.13;6.53;;;;;;;-2.63;82.07;99571.06;8310637;28;20136;-76
2022/03/04 07:15:00;;;;;;;15.23;6.33;;;;;;;-2.41;82.05;99575.53;8322748;28;20587;-76
2022/03/04 07:19:02;;;;;;;10.07;6.77;;;;;;;-2.17;82.66;99574.19;8306148;28;20607;-76
2022/03/04 07:23:05;;;;;;;13.60;8.43;;;;;;;-1.79;82.63;99572.63;8315955;28;20460;-77
2022/03/04 07:27:07;;;;;;;11.97;8.27;;;;;;;-1.36;80.69;99575.47;8316914;28;20049;-78
2022/03/04 07:31:09;;;;;;;11.90;8.02;;;;;;;-0.73;79.32;99580.78;8315018;28;20064;-77
2022/03/04 07:35:11;;;;;;;12.43;8.33;;;;;;;0.10;76.36;99569.78;8312489;28;20140;-77
2022/03/04 07:39:13;;;;;;;;;;;;;;;0.85;72.57;99571.84;8319748;28;20124;-76
2022/03/04 07:43:14;;;;;;;12.90;7.27;;;;;;;1.46;69.65;99568.06;8319298;28;19941;-74
2022/03/04 07:47:16;;;;;;;14.27;7.97;;;;;;;1.90;67.47;99572.13;8308241;28;20077;-76
2022/03/04 07:51:17;;;;;;;16.33;8.27;;;;;;;2.24;66.02;99571.50;8313089;28;20050;-76
2022/03/04 07:55:20;;;;;;;18.33;9.00;;;;;;;2.58;64.36;99576.00;8307486;28;20650;-73
2022/03/04 07:59:22;;;;;;;16.30;9.43;;;;;;;2.99;62.91;99579.75;8311058;28;20084;-74
2022/03/04 08:03:23;;;;;;;13.98;7.55;;;;;;;3.34;61.59;99575.63;8307167;28;20076;-74
2022/03/04 08:07:25;;;;;;;14.13;7.67;;;;;;;3.66;60.29;99573.03;8305575;28;20094;-74
2022/03/04 08:11:28;;;;;;;17.50;8.97;;;;;;;3.99;59.12;99579.88;8310094;28;20049;-74
2022/03/04 08:15:30;;;;;;;15.00;8.60;;;;;;;4.36;57.47;99579.91;8319369;28;20052;-73
2022/03/04 08:19:33;;;;;;;12.90;8.13;;;;;;;4.75;56.04;99582.50;8318551;28;20133;-74
2022/03/04 08:23:34;;;;;;;;;;;;;;;5.03;54.65;99596.84;8312366;28;20517;-74
2022/03/04 08:27:40;;;;;;;10.10;7.53;;;;;;;5.26;54.07;99593.88;8306253;28;19925;-74
2022/03/04 08:31:42;;;;;;;12.43;7.80;;;;;;;5.55;52.82;99595.28;8299385;28;20061;-74
2022/03/04 08:35:43;;;;;;;12.77;7.50;;;;;;;5.91;51.35;99605.41;8308111;28;20490;-72
2022/03/04 08:39:45;;;;;;;12.90;8.60;;;;;;;6.09;50.02;99604.00;8302231;28;20045;-74
2022/03/04 08:43:47;;;;;;;13.77;9.07;;;;;;;6.38;49.35;99609.66;8304402;28;20068;-72
2022/03/04 08:47:49;;;;;;;13.48;7.82;;;;;;;6.66;48.00;99612.69;8303185;28;20164;-72
2022/03/04 08:51:51;;;;;;;12.38;8.30;;;;;;;6.74;48.07;99611.91;8297274;28;20132;-74
2022/03/04 08:55:53;;;;;;;10.33;7.50;;;;;;;6.80;47.46;99615.44;8291443;28;20144;-75
2022/03/04 08:59:54;;;;;;;10.07;7.35;;;;;;;6.81;47.27;99613.72;8306686;28;20461;-74
2022/03/04 09:03:56;;;;;;;9.70;7.13;;;;;;;6.92;47.14;99614.75;8298229;28;20068;-74
2022/03/04 09:07:58;;;;;;;11.30;7.60;;;;;;;6.96;46.27;99616.53;8302651;28;20160;-72
2022/03/04 09:11:59;;;;;;;11.73;8.30;;;;;;;7.06;46.25;99607.19;8304219;28;20061;-72
2022/03/04 09:16:01;;;;;;;10.27;7.70;;;;;;;7.31;45.70;99606.66;8304478;28;20120;-74
2022/03/04 09:20:04;;;;;;;10.65;8.55;;;;;;;7.56;44.47;99607.81;8305209;28;20054;-75
2022/03/04 09:24:06;;;;;;;11.30;7.53;;;;;;;7.80;43.92;99602.03;8301585;28;20483;-74
2022/03/04 09:28:08;;;;;;;10.57;7.75;;;;;;;7.95;43.83;99603.91;8307185;28;20057;-73
2022/03/04 09:32:09;;;;;;;12.85;8.05;;;;;;;8.04;43.24;99603.97;8299607;28;20049;-74
2022/03/04 09:36:14;;;;;;;15.43;7.90;;;;;;;8.29;42.71;99598.19;8303291;28;20053;-75
2022/03/04 09:40:16;;;;;;;10.85;7.68;;;;;;;8.69;42.18;99599.34;8301056;28;20354;-74
2022/03/04 09:44:17;;;;;;;12.88;8.55;;;;;;;8.88;41.76;99597.75;8313768;28;20061;-75
2022/03/04 09:48:19;;;;;;;10.43;7.88;;;;;;;8.90;40.87;99600.34;8303569;28;20049;-74
2022/03/04 09:52:20;;;;;;;11.70;8.13;;;;;;;9.07;40.40;99596.13;8313722;28;20125;-74
2022/03/04 09:56:22;;;;;;;27.75;14.00;;;;;;;9.17;39.79;99602.22;8310435;28;20136;-74
2022/03/04 10:00:24;;;;;;;11.82;8.35;;;;;;;9.23;39.85;99591.88;8293180;28;20049;-75
2022/03/04 10:04:28;;;;;;;12.65;8.82;;;;;;;9.38;40.14;99599.72;8314928;28;20081;-74
2022/03/04 10:08:43;;;;;;;12.35;8.30;;;;;;;9.54;39.57;99596.31;8293694;28;20056;-74
2022/03/04 10:12:51;;;;;;;10.32;7.95;;;;;;;9.56;38.80;99597.19;8308306;28;20462;-74
2022/03/04 10:16:57;;;;;;;10.52;7.85;;;;;;;9.77;38.64;99596.38;8308173;28;20053;-75
2022/03/04 10:20:58;;;;;;;11.20;6.90;;;;;;;9.90;37.97;99600.72;8297284;28;20152;-74
2022/03/04 10:25:00;;;;;;;10.23;8.43;;;;;;;10.13;37.52;99592.94;8309913;28;20057;-76
2022/03/04 10:29:18;;;;;;;;;;;;;;;10.29;37.65;99586.06;8312568;28;20148;-75
2022/03/04 10:33:25;;;;;;;10.10;7.20;;;;;;;10.48;37.21;99582.59;8305767;28;19929;-75
2022/03/04 10:37:56;;;;;;;10.00;7.20;;;;;;;10.50;36.19;99586.06;8299698;28;20045;-73
2022/03/04 10:42:02;;;;;;;10.70;7.50;;;;;;;10.62;35.53;99585.19;8298319;28;20064;-74
2022/03/04 10:46:05;;;;;;;9.17;7.70;;;;;;;10.71;35.43;99589.47;8310509;28;20061;-74
2022/03/04 10:50:07;;;;;;;12.48;8.43;;;;;;;10.85;35.08;99598.97;8309306;28;20045;-74
2022/03/04 10:54:14;;;;;;;9.85;7.60;;;;;;;10.98;35.34;99589.44;8302965;28;20050;-74
2022/03/04 10:58:22;;;;;;;10.60;7.88;;;;;;;11.29;34.32;99587.56;8311234;28;20049;-73
2022/03/04 11:02:43;;;;;;;11.48;7.72;;;;;;;11.25;34.87;99582.41;8306529;28;20063;-74
2022/03/04 11:06:47;;;;;;;11.25;7.88;;;;;;;11.31;35.44;99582.34;8290823;28;20410;-73
2022/03/04 11:10:50;;;;;;;9.98;7.50;;;;;;;11.62;34.56;99577.88;8300033;28;20064;-74
2022/03/04 11:14:52;;;;;;;10.45;8.07;;;;;;;11.75;34.63;99577.81;8313622;28;20053;-74
2022/03/04 11:18:55;;;;;;;19.67;8.80;;;;;;;11.76;34.25;99574.34;8305861;28;20064;-73
2022/03/04 11:22:57;;;;;;;12.57;8.02;;;;;;;11.66;33.12;99569.19;8304028;28;20060;-73
2022/03/04 11:27:05;;;;;;;10.38;8.40;;;;;;;11.78;34.51;99575.22;8306461;28;20057;-72
2022/03/04 11:31:09;;;;;;;11.75;7.90;;;;;;;11.69;32.90;99567.44;8309513;28;20061;-72
2022/03/04 11:35:11;;;;;;;9.40;7.35;;;;;;;11.71;34.41;99567.44;8304819;28;20450;-73
2022/03/04 11:39:13;;;;;;;10.73;7.72;;;;;;;11.83;33.60;99566.50;8312494;28;20045;-72
2022/03/04 11:43:16;;;;;;;10.73;7.53;;;;;;;11.93;32.76;99570.78;8304584;28;20078;-71
2022/03/04 11:47:17;;;;;;;11.02;8.00;;;;;;;12.04;32.60;99558.56;8307511;28;20581;-72
2022/03/04 11:51:21;;;;;;;10.85;8.35;;;;;;;12.12;32.10;99564.56;8307749;28;20049;-72
2022/03/04 11:55:26;;;;;;;8.10;7.18;;;;;;;12.13;31.85;99558.50;8305536;28;20814;-72
2022/03/04 11:59:27;;;;;;;10.20;7.80;;;;;;;12.13;31.27;99549.81;8306297;28;20061;-73
2022/03/04 12:03:29;;;;;;;10.18;7.57;;;;;;;12.11;31.59;99552.44;8306480;28;20057;-74
2022/03/04 12:07:34;;;;;;;11.00;8.30;;;;;;;12.17;31.51;99549.75;8302762;28;20049;-72
2022/03/04 12:11:35;;;;;;;10.70;7.60;;;;;;;12.18;32.17;99543.69;8298160;28;20053;-74
2022/03/04 12:15:42;;;;;;;9.27;7.03;;;;;;;12.31;31.56;99541.84;8299545;28;20064;-73
2022/03/04 12:19:44;;;;;;;9.73;7.53;;;;;;;12.44;31.75;99547.81;8305534;28;20140;-74
2022/03/04 12:23:49;;;;;;;10.98;8.02;;;;;;;12.55;31.48;99533.78;8305405;28;20136;-74
2022/03/04 12:28:15;;;;;;;10.90;7.63;;;;;;;12.82;31.56;99529.19;8303795;28;20057;-72
2022/03/04 12:32:17;;;;;;;11.40;8.50;;;;;;;13.01;31.08;99531.56;8300825;28;20054;-73
2022/03/04 12:36:19;;;;;;;10.48;7.70;;;;;;;13.16;30.80;99522.69;8307962;28;20057;-72
2022/03/04 12:40:22;;;;;;;9.13;7.97;;;;;;;13.21;31.31;99520.91;8296121;28;20136;-73
2022/03/04 12:44:27;;;;;;;15.50;8.18;;;;;;;13.23;30.25;99521.75;8308298;28;20724;-77
2022/03/04 12:48:30;;;;;;;10.68;8.13;;;;;;;13.14;30.44;99515.78;8298120;28;20115;-74
2022/03/04 12:52:35;;;;;;;10.07;7.80;;;;;;;13.08;29.83;99514.06;8306420;28;20077;-74
2022/03/04 12:56:37;;;;;;;9.82;8.60;;;;;;;13.02;30.06;99503.75;8287573;28;20141;-76
2022/03/04 13:00:38;;;;;;;10.82;7.60;;;;;;;12.98;30.44;99504.66;8301196;28;20149;-72
2022/03/04 13:04:41;;;;;;;9.43;7.93;;;;;;;12.91;30.59;99498.66;8293508;28;20062;-73
2022/03/04 13:08:53;;;;;;;14.20;8.18;;;;;;;12.92;30.43;99496.91;8292431;28;20160;-74
2022/03/04 13:12:58;;;;;;;11.00;8.77;;;;;;;12.94;30.54;99493.41;8301869;28;20052;-74
2022/03/04 13:17:00;;;;;;;11.13;8.65;;;;;;;12.91;30.29;99490.81;8302194;28;20509;-72
2022/03/04 13:21:06;;;;;;;10.07;7.63;;;;;;;12.95;30.23;99489.94;8305819;28;20053;-71
2022/03/04 13:25:08;;;;;;;10.80;8.65;;;;;;;13.00;30.30;99487.25;8305286;28;20501;-71
2022/03/04 13:29:12;;;;;;;10.57;8.67;;;;;;;12.98;30.24;99484.69;8311994;28;20141;-72
2022/03/04 13:33:13;;;;;;;10.20;8.50;;;;;;;12.98;30.09;99476.84;8284588;28;21265;-72
2022/03/04 13:37:17;;;;;;;12.05;9.05;;;;;;;13.09;30.44;99481.06;8292186;28;20058;-71
2022/03/04 13:41:21;;;;;;;13.05;9.05;;;;;;;13.16;30.01;99482.72;8300400;28;20060;-72
2022/03/04 13:45:48;;;;;;;10.45;8.50;;;;;;;13.06;29.75;99479.34;8296490;28;20136;-72
2022/03/04 13:49:50;;;;;;;11.77;9.40;;;;;;;12.92;29.78;99470.84;8297325;28;20454;-72
2022/03/04 13:53:57;;;;;;;12.02;9.07;;;;;;;12.90;30.15;99468.25;8308170;28;20087;-72
2022/03/04 13:58:24;;;;;;;10.93;8.38;;;;;;;12.88;30.05;99463.94;8309067;28;20057;-71
2022/03/04 14:02:26;;;;;;;9.13;7.55;;;;;;;12.97;29.42;99466.44;8295648;28;20473;-71
2022/03/04 14:06:29;;;;;;;11.27;9.40;;;;;;;12.89;29.69;99463.06;8300251;28;20045;-72
2022/03/04 14:10:32;;;;;;;12.25;8.68;;;;;;;12.98;30.09;99461.22;8299334;28;20175;-72
2022/03/04 14:14:33;;;;;;;11.13;9.02;;;;;;;12.94;29.60;99456.06;8308705;28;20072;-73
2022/03/04 14:18:35;;;;;;;13.00;8.77;;;;;;;12.98;30.11;99458.59;8304562;28;20050;-71
2022/03/04 14:22:37;;;;;;;10.13;8.00;;;;;;;12.98;29.76;99458.59;8289324;28;20144;-72
2022/03/04 14:26:38;;;;;;;10.52;8.00;;;;;;;12.85;29.08;99449.22;8308116;28;20079;-72
2022/03/04 14:30:42;;;;;;;12.57;9.10;;;;;;;12.79;29.01;99446.69;8293197;28;20070;-72
2022/03/04 14:34:44;;;;;;;11.75;8.10;;;;;;;12.71;29.15;99451.13;8310679;28;20172;-71
2022/03/04 14:38:45;;;;;;;15.10;8.60;;;;;;;12.65;30.02;99444.25;8313516;28;20421;-73
2022/03/04 14:42:52;;;;;;;11.48;8.75;;;;;;;12.61;29.44;99445.19;8306987;28;20088;-72
2022/03/04 14:46:53;;;;;;;11.07;8.57;;;;;;;12.54;29.39;99445.25;8304672;28;20061;-70
2022/03/04 14:50:55;;;;;;;10.57;7.97;;;;;;;12.44;29.77;99443.66;8302944;28;20160;-72
2022/03/04 14:54:56;;;;;;;9.88;7.80;;;;;;;12.45;29.28;99434.94;8307765;28;20061;-72
2022/03/04 14:58:59;;;;;;;;;;;;;;;12.35;29.46;99447.19;8303449;28;20115;-73
2022/03/04 15:03:00;;;;;;;8.35;6.35;;;;;;;12.31;29.09;99440.31;8300856;28;20219;-73
2022/03/04 15:07:08;;;;;;;12.80;6.70;;;;;;;12.27;29.09;99434.28;8300200;28;20053;-73
2022/03/04 15:11:09;;;;;;;8.05;6.60;;;;;;;12.26;28.75;99434.28;8301964;28;20045;-73
2022/03/04 15:15:12;;;;;;;10.03;7.13;;;;;;;12.24;28.95;99436.91;8301273;28;20521;-72
2022/03/04 15:19:14;;;;;;;9.88;6.65;;;;;;;12.22;28.47;99427.41;8301048;28;20134;-73
2022/03/04 15:23:15;;;;;;;11.23;6.65;;;;;;;12.21;28.67;99425.66;8289075;28;20136;-73
2022/03/04 15:27:30;;;;;;;10.25;6.63;;;;;;;12.20;28.50;99430.00;8298673;28;20061;-72
2022/03/04 15:31:32;;;;;;;11.03;7.23;;;;;;;12.25;28.89;99432.56;8296575;28;20462;-72
2022/03/04 15:35:34;;;;;;;11.07;7.87;;;;;;;12.26;28.97;99434.28;8298277;28;20064;-73
2022/03/04 15:39:37;;;;;;;9.55;6.82;;;;;;;12.21;29.12;99436.06;8297760;28;20056;-73
2022/03/04 15:43:39;;;;;;;11.40;8.40;;;;;;;12.25;29.56;99432.56;8297838;28;20050;-72
2022/03/04 15:47:41;;;;;;;10.20;7.80;;;;;;;12.34;29.26;99442.88;8285029;28;20058;-72
2022/03/04 15:51:43;;;;;;;10.10;8.10;;;;;;;12.35;29.17;99445.44;8306475;28;20137;-72
2022/03/04 15:55:44;;;;;;;11.18;8.05;;;;;;;12.42;29.09;99440.19;8302785;28;20431;-72
2022/03/04 15:59:49;;;;;;;12.43;8.57;;;;;;;14.72;26.28;99449.66;8303716;28;20533;-74
2022/03/04 16:03:50;;;;;;;12.75;10.82;;;;;;;15.84;23.70;99434.97;8289829;28;20069;-73
2022/03/04 16:07:54;;;;;;;13.43;11.27;;;;;;;14.92;24.55;99447.53;8295887;28;20053;-73
2022/03/04 16:11:56;;;;;;;13.98;11.43;;;;;;;14.37;24.96;99437.28;8304292;28;20053;-72
2022/03/04 16:16:18;;;;;;;23.43;14.47;;;;;;;13.89;26.11;99439.88;8299954;28;20057;-71
2022/03/04 16:20:20;;;;;;;13.48;10.30;;;;;;;13.50;26.27;99436.19;8297706;28;20058;-73
2022/03/04 16:24:21;;;;;;;11.90;8.90;;;;;;;12.88;26.52;99438.75;8301846;28;20380;-73
2022/03/04 16:28:23;;;;;;;12.27;8.90;;;;;;;12.22;27.55;99435.22;8293191;28;20149;-74
2022/03/04 16:32:27;;;;;;;10.15;7.75;;;;;;;11.62;28.25;99435.69;8296408;28;20064;-75
2022/03/04 16:36:30;;;;;;;11.18;8.35;;;;;;;11.08;29.62;99432.59;8293388;28;20069;-74
2022/03/04 16:40:31;;;;;;;10.82;7.60;;;;;;;10.67;30.09;99434.56;8294257;28;20049;-73
2022/03/04 16:44:33;;;;;;;10.07;7.25;;;;;;;10.28;31.30;99439.00;8285430;28;20176;-74
2022/03/04 16:48:35;;;;;;;11.48;6.53;;;;;;;9.94;31.58;99443.38;8286713;28;20058;-74
2022/03/04 16:52:37;;;;;;;14.20;6.00;;;;;;;9.66;32.15;99447.69;8285465;28;20439;-75
2022/03/04 16:56:41;;;;;;;11.07;6.43;;;;;;;9.42;32.59;99447.69;8297282;28;20060;-73
2022/03/04 17:00:47;;;;;;;9.55;6.50;;;;;;;9.12;34.20;99446.75;8301330;28;20144;-74
2022/03/04 17:04:49;;;;;;;8.15;5.15;;;;;;;8.81;32.50;99452.72;8295954;28;20069;-74
2022/03/04 17:08:50;;;;;;;8.07;4.70;;;;;;;8.61;32.99;99465.56;8308552;28;20072;-73
2022/03/04 17:12:52;;;;;;;5.70;4.07;;;;;;;8.42;33.20;99459.44;8285360;28;20532;-73
2022/03/04 17:16:53;;;;;;;7.45;4.72;;;;;;;8.24;33.45;99465.31;8300773;28;20755;-73
2022/03/04 17:20:55;;;;;;;5.43;4.30;;;;;;;8.09;32.65;99470.44;8303581;28;20046;-74
2022/03/04 17:24:56;;;;;;;6.55;4.22;;;;;;;7.96;33.40;99468.59;8297508;28;20417;-73
2022/03/04 17:28:58;;;;;;;5.28;4.15;;;;;;;7.86;33.82;99475.41;8294079;28;20477;-75
2022/03/04 17:32:59;;;;;;;6.22;4.28;;;;;;;7.70;34.27;99481.31;8293249;28;20073;-73
2022/03/04 17:37:01;;;;;;;7.05;4.47;;;;;;;7.47;34.87;99483.69;8284274;28;20107;-74
2022/03/04 17:41:22;;;;;;;8.88;4.63;;;;;;;7.24;36.22;99496.38;8292823;28;20057;-72
2022/03/04 17:45:24;;;;;;;9.03;5.73;;;;;;;7.03;35.59;99497.03;8296080;28;20088;-73
2022/03/04 17:49:27;;;;;;;10.47;5.90;;;;;;;6.82;35.57;99492.47;8308317;28;20053;-73
2022/03/04 17:53:29;;;;;;;8.02;5.30;;;;;;;6.61;36.99;99493.06;8291064;28;20236;-73
2022/03/04 17:57:30;;;;;;;6.37;4.67;;;;;;;6.35;38.45;99502.16;8284451;28;20597;-74
2022/03/04 18:01:32;;;;;;;9.37;5.20;;;;;;;6.15;39.56;99509.59;8301229;28;20064;-72
2022/03/04 18:05:34;;;;;;;9.47;5.57;;;;;;;5.95;39.41;99499.00;8308694;28;20063;-74
2022/03/04 18:09:35;;;;;;;6.97;4.53;;;;;;;5.78;39.98;99509.84;8313462;28;20045;-73
2022/03/04 18:13:37;;;;;;;8.60;5.10;;;;;;;5.63;41.91;99518.16;8311863;28;20045;-74
2022/03/04 18:17:39;;;;;;;10.07;5.07;;;;;;;5.44;41.75;99519.56;8304964;28;20057;-73
2022/03/04 18:21:41;;;;;;;9.40;5.47;;;;;;;5.32;41.07;99519.31;8291492;28;20046;-73
2022/03/04 18:25:43;;;;;;;9.23;5.33;;;;;;;5.24;40.96;99524.34;8301565;28;20100;-73
2022/03/04 18:29:46;;;;;;;7.88;4.93;;;;;;;5.18;40.59;99520.75;8303752;28;20099;-74
2022/03/04 18:33:48;;;;;;;10.47;6.57;;;;;;;5.12;40.92;99526.66;8298381;28;20054;-74
2022/03/04 18:37:49;;;;;;;11.67;6.63;;;;;;;5.02;41.20;99532.47;8308526;28;20163;-73
2022/03/04 18:41:50;;;;;;;10.83;6.00;;;;;;;4.94;41.11;99534.88;8287637;28;20054;-73
2022/03/04 18:45:52;;;;;;;9.87;5.70;;;;;;;4.88;41.16;99536.47;8299179;28;20148;-74
2022/03/04 18:49:54;;;;;;;9.27;5.43;;;;;;;4.82;41.58;99535.50;8315713;28;20152;-74
2022/03/04 18:53:56;;;;;;;11.63;5.83;;;;;;;4.74;42.71;99542.19;8302210;28;20140;-72
2022/03/04 18:57:57;;;;;;;13.57;6.07;;;;;;;4.55;43.42;99537.50;8312341;28;20081;-73
2022/03/04 19:01:59;;;;;;;12.67;6.23;;;;;;;4.48;44.04;99546.75;8303297;28;20115;-73